Time;durP1;ratioP1;P1;durP2;ratioP2;P2;SDS_P1;SDS_P2;PMS_P1;PMS_P2;Temp;Humidity;BMP_temperature;BMP_pressure;BME280_temperature;BME280_humidity;BME280_pressure;Samples;Min_cycle;Max_cycle;Signal;HPM_P1;HPM_P2
2022/07/23 00:00:09;;;;;;;;;;;;;;;;;;5084527;28;20331;-61
2022/07/23 00:02:35;;;;;;;;;;;;;;;;;;5083791;28;19924;-61
2022/07/23 00:05:01;;;;;;;;;;;;;;;;;;5083839;28;19939;-61
2022/07/23 00:07:27;;;;;;;;;;;;;;;;;;5083736;28;20405;-61
2022/07/23 00:09:53;;;;;;;;;;;;;;;;;;5084232;28;19971;-61
2022/07/23 00:12:19;;;;;;;;;;;;;;;;;;5065339;28;19971;-61
2022/07/23 00:14:45;;;;;;;;;;;;;;;;;;5084061;28;20015;-61
2022/07/23 00:17:11;;;;;;;;;;;;;;;;;;5086572;28;20011;-62
2022/07/23 00:19:37;;;;;;;;;;;;;;;;;;5087638;28;19962;-61
2022/07/23 00:22:03;;;;;;;;;;;;;;;;;;5087190;28;20579;-61
2022/07/23 00:24:29;;;;;;;;;;;;;;;;;;5087124;28;19924;-61
2022/07/23 00:26:55;;;;;;;;;;;;;;;;;;5086770;28;20214;-62
2022/07/23 00:29:21;;;;;;;;;;;;;;;;;;5087354;28;19928;-61
2022/07/23 00:31:47;;;;;;;;;;;;;;;;;;5087307;28;19924;-62
2022/07/23 00:34:13;;;;;;;;;;;;;;;;;;5068856;28;20377;-61
2022/07/23 00:36:39;;;;;;;;;;;;;;;;;;5087389;28;19943;-61
2022/07/23 00:39:05;;;;;;;;;;;;;;;;;;5087624;28;19924;-61
2022/07/23 00:41:31;;;;;;;;;;;;;;;;;;5086133;28;20478;-61
2022/07/23 00:43:57;;;;;;;;;;;;;;;;;;5087085;28;19928;-61
2022/07/23 00:46:24;;;;;;;;;;;;;;;;;;5087178;28;19949;-61
2022/07/23 00:48:50;;;;;;;;;;;;;;;;;;5087282;28;19924;-61
2022/07/23 00:51:16;;;;;;;;;;;;;;;;;;5086852;28;19924;-61
2022/07/23 00:53:42;;;;;;;;;;;;;;;;;;5086966;28;19920;-61
2022/07/23 00:56:08;;;;;;;;;;;;;;;;;;5086813;28;19928;-61
2022/07/23 00:58:34;;;;;;;;;;;;;;;;;;5086754;28;20408;-61
2022/07/23 01:01:00;;;;;;;;;;;;;;;;;;5086761;28;19936;-61
2022/07/23 01:03:26;;;;;;;;;;;;;;;;;;5086199;28;20415;-62
2022/07/23 01:05:52;;;;;;;;;;;;;;;;;;5086726;28;19924;-61
2022/07/23 01:08:18;;;;;;;;;;;;;;;;;;5086685;28;19975;-62
2022/07/23 01:10:44;;;;;;;;;;;;;;;;;;5092187;22;19931;-62
2022/07/23 01:13:10;;;;;;;;;;;;;;;;;;5078061;28;20015;-61
2022/07/23 01:15:36;;;;;;;;;;;;;;;;;;5070012;28;19924;-61
2022/07/23 01:18:02;;;;;;;;;;;;;;;;;;5083903;28;19924;-61
2022/07/23 01:20:28;;;;;;;;;;;;;;;;;;5085903;28;19924;-62
2022/07/23 01:22:54;;;;;;;;;;;;;;;;;;5086722;28;19932;-61
2022/07/23 01:25:21;;;;;;;;;;;;;;;;;;5085295;28;19971;-62
2022/07/23 01:27:47;;;;;;;;;;;;;;;;;;5086210;28;19924;-61
2022/07/23 01:30:13;;;;;;;;;;;;;;;;;;5086363;28;19924;-61
2022/07/23 01:32:39;;;;;;;;;;;;;;;;;;5086541;28;19935;-61
2022/07/23 06:01:35;;;;;;;;;;;;;;;;;;4684376;28;19925;-61
2022/07/23 06:04:01;;;;;;;;;;;;;;;;;;5005855;28;19937;-61
2022/07/23 06:06:27;;;;;;;;;;;;;;;;;;5005957;28;19917;-61
2022/07/23 06:08:53;;;;;;;;;;;;;;;;;;5006876;28;20298;-61
2022/07/23 06:11:19;;;;;;;;;;;;;;;;;;5005409;28;19925;-61
2022/07/23 06:13:45;;;;;;;;;;;;;;;;;;5005949;28;19925;-61
2022/07/23 06:16:11;;;;;;;;;;;;;;;;;;5004676;28;20011;-61
2022/07/23 06:18:37;;;;;;;;;;;;;;;;;;5005355;28;19925;-60
2022/07/23 06:21:03;;;;;;;;;;;;;;;;;;5006273;28;19925;-61
2022/07/23 06:23:29;;;;;;;;;;;;;;;;;;5006269;28;19932;-61
2022/07/23 06:25:55;;;;;;;;;;;;;;;;;;5006627;28;19926;-61
2022/07/23 06:28:21;;;;;;;;;;;;;;;;;;5006525;28;20395;-61
2022/07/23 06:30:48;;;;;;;;;;;;;;;;;;5004174;28;20449;-61
2022/07/23 06:33:14;;;;;;;;;;;;;;;;;;5005182;28;19951;-61
2022/07/23 06:35:40;;;;;;;;;;;;;;;;;;5019787;28;19996;-61
2022/07/23 06:38:06;;;;;;;;;;;;;;;;;;5007181;28;19925;-61
2022/07/23 06:40:32;;;;;;;;;;;;;;;;;;5003526;28;19926;-61
2022/07/23 06:42:58;;;;;;;;;;;;;;;;;;4996567;28;20329;-62
2022/07/23 06:45:26;;;;;;;;;;;;;;;;;;5007563;28;22169;-61
2022/07/23 06:47:52;;;;;;;;;;;;;;;;;;5007069;28;19929;-61
2022/07/23 06:50:18;;;;;;;;;;;;;;;;;;5008409;28;20040;-61
2022/07/23 06:52:44;;;;;;;;;;;;;;;;;;5007403;28;19932;-61
2022/07/23 06:55:10;;;;;;;;;;;;;;;;;;5006864;28;19925;-61
2022/07/23 06:57:36;;;;;;;;;;;;;;;;;;5005414;28;19926;-61
2022/07/23 07:00:02;;;;;;;;;;;;;;;;;;5006723;28;19933;-61
2022/07/23 07:02:28;;;;;;;;;;;;;;;;;;5007086;28;19975;-61
2022/07/23 07:04:56;;;;;;;;;;;;;;;;;;5006349;28;19932;-60
2022/07/23 07:07:22;;;;;;;;;;;;;;;;;;5006174;28;19932;-62
2022/07/23 07:09:48;;;;;;;;;;;;;;;;;;5011887;28;20436;-61
2022/07/23 07:12:14;;;;;;;;;;;;;;;;;;5011488;28;19987;-61
2022/07/23 07:14:39;;;;;;;;;;;;;;;;;;5001808;28;19926;-61
2022/07/23 07:17:05;;;;;;;;;;;;;;;;;;5004192;28;19977;-61
2022/07/23 07:19:32;;;;;;;;;;;;;;;;;;5009562;28;19931;-61
2022/07/23 07:21:57;;;;;;;;;;;;;;;;;;5006993;28;19929;-61
2022/07/23 07:24:24;;;;;;;;;;;;;;;;;;5003861;28;19952;-61
2022/07/23 07:26:50;;;;;;;;;;;;;;;;;;5006491;28;19928;-61
2022/07/23 07:29:16;;;;;;;;;;;;;;;;;;5006426;28;19930;-61
2022/07/23 07:31:42;;;;;;;;;;;;;;;;;;5007731;28;19936;-61
2022/07/23 07:34:08;;;;;;;;;;;;;;;;;;5005969;28;20362;-61
2022/07/23 07:36:35;;;;;;;;;;;;;;;;;;5007236;28;19930;-61
2022/07/23 07:39:01;;;;;;;;;;;;;;;;;;5006661;28;20024;-61
2022/07/23 07:41:27;;;;;;;;;;;;;;;;;;5007849;28;19934;-61
2022/07/23 07:43:53;;;;;;;;;;;;;;;;;;5020177;28;20375;-60
2022/07/23 07:46:19;;;;;;;;;;;;;;;;;;5021233;28;19921;-61
2022/07/23 07:48:45;;;;;;;;;;;;;;;;;;5012913;28;20378;-60
2022/07/23 07:51:11;;;;;;;;;;;;;;;;;;5009696;28;19921;-60
2022/07/23 07:53:37;;;;;;;;;;;;;;;;;;5015931;28;20365;-59
2022/07/23 07:56:03;;;;;;;;;;;;;;;;;;5001910;28;20028;-65
2022/07/23 07:58:29;;;;;;;;;;;;;;;;;;5019500;28;20025;-62
2022/07/23 08:00:55;;;;;;;;;;;;;;;;;;4991079;28;19926;-61
2022/07/23 08:03:21;;;;;;;;;;;;;;;;;;4984798;28;19930;-61
2022/07/23 08:05:47;;;;;;;;;;;;;;;;;;4985438;28;19989;-61
2022/07/23 08:08:15;;;;;;;;;;;;;;;;;;4985045;28;19988;-62
2022/07/23 08:10:41;;;;;;;;;;;;;;;;;;4985916;28;20056;-62
2022/07/23 08:13:07;;;;;;;;;;;;;;;;;;4983204;28;20019;-62
2022/07/23 08:15:33;;;;;;;;;;;;;;;;;;4983917;28;20033;-62
2022/07/23 08:17:59;;;;;;;;;;;;;;;;;;4985083;28;20516;-62
2022/07/23 08:20:25;;;;;;;;;;;;;;;;;;4985768;28;20490;-62
2022/07/23 08:22:51;;;;;;;;;;;;;;;;;;4985773;28;20020;-62
2022/07/23 08:25:17;;;;;;;;;;;;;;;;;;4984740;28;19932;-62
2022/07/23 08:27:43;;;;;;;;;;;;;;;;;;4983091;28;20013;-62
2022/07/23 08:30:09;;;;;;;;;;;;;;;;;;4984755;28;19934;-62
2022/07/23 08:32:35;;;;;;;;;;;;;;;;;;4984351;28;19926;-62
2022/07/23 08:35:01;;;;;;;;;;;;;;;;;;4985191;28;20050;-62
2022/07/23 08:37:27;;;;;;;;;;;;;;;;;;4984202;28;20623;-62
2022/07/23 08:39:56;;;;;;;;;;;;;;;;;;4983662;28;20004;-61
2022/07/23 08:42:22;;;;;;;;;;;;;;;;;;4986313;28;20426;-62
2022/07/23 08:44:48;;;;;;;;;;;;;;;;;;4988158;28;19925;-62
2022/07/23 08:47:15;;;;;;;;;;;;;;;;;;4988340;28;19937;-62
2022/07/23 08:49:41;;;;;;;;;;;;;;;;;;4988167;28;19926;-61
2022/07/23 08:52:07;;;;;;;;;;;;;;;;;;4981843;28;19949;-61
2022/07/23 08:54:32;;;;;;;;;;;;;;;;;;4985717;28;19926;-61
2022/07/23 08:56:58;;;;;;;;;;;;;;;;;;4988357;28;20340;-62
2022/07/23 08:59:26;;;;;;;;;;;;;;;;;;4986046;28;19973;-62
2022/07/23 09:01:52;;;;;;;;;;;;;;;;;;4997500;28;19935;-62
2022/07/23 09:04:18;;;;;;;;;;;;;;;;;;5005269;28;19980;-61
2022/07/23 09:06:44;;;;;;;;;;;;;;;;;;5003807;28;19930;-61
2022/07/23 09:09:10;;;;;;;;;;;;;;;;;;5002708;28;19929;-61
2022/07/23 09:11:36;;;;;;;;;;;;;;;;;;5002940;28;19977;-61
2022/07/23 09:14:02;;;;;;;;;;;;;;;;;;5005930;28;20453;-62
2022/07/23 09:16:29;;;;;;;;;;;;;;;;;;5003657;28;19926;-61
2022/07/23 09:18:55;;;;;;;;;;;;;;;;;;4999434;28;19925;-62
2022/07/23 09:21:21;;;;;;;;;;;;;;;;;;5000685;28;20083;-61
2022/07/23 09:23:47;;;;;;;;;;;;;;;;;;4993426;28;19926;-61
2022/07/23 09:26:13;;;;;;;;;;;;;;;;;;5007218;28;19932;-61
2022/07/23 09:28:39;;;;;;;;;;;;;;;;;;5007589;28;19925;-61
2022/07/23 09:31:05;;;;;;;;;;;;;;;;;;5004619;28;20008;-61
2022/07/23 09:33:31;;;;;;;;;;;;;;;;;;5001044;28;19925;-61
2022/07/23 09:35:57;;;;;;;;;;;;;;;;;;5006565;28;19933;-61
2022/07/23 09:38:23;;;;;;;;;;;;;;;;;;5007174;28;20104;-61
2022/07/23 09:40:49;;;;;;;;;;;;;;;;;;5003989;28;19925;-61
2022/07/23 09:43:15;;;;;;;;;;;;;;;;;;5003048;28;20382;-61
2022/07/23 09:45:41;;;;;;;;;;;;;;;;;;5006338;28;19932;-62
2022/07/23 09:48:07;;;;;;;;;;;;;;;;;;5006303;28;19921;-61
2022/07/23 09:50:33;;;;;;;;;;;;;;;;;;5006552;28;19961;-61
2022/07/23 09:52:59;;;;;;;;;;;;;;;;;;5000033;28;19933;-61
2022/07/23 09:55:25;;;;;;;;;;;;;;;;;;5007069;28;19929;-61
2022/07/23 09:57:53;;;;;;;;;;;;;;;;;;5005017;28;20004;-61
2022/07/23 10:00:19;;;;;;;;;;;;;;;;;;4996374;28;20422;-61
2022/07/23 10:02:45;;;;;;;;;;;;;;;;;;5000890;28;19977;-61
2022/07/23 10:05:11;;;;;;;;;;;;;;;;;;4997920;28;19929;-62
2022/07/23 10:07:37;;;;;;;;;;;;;;;;;;4992182;28;19926;-62
2022/07/23 10:10:03;;;;;;;;;;;;;;;;;;5005853;28;19963;-62
2022/07/23 10:14:55;;;;;;;;;;;;;;;;;;4993136;28;20012;-62
2022/07/23 10:17:21;;;;;;;;;;;;;;;;;;4994638;28;19929;-63
2022/07/23 10:19:47;;;;;;;;;;;;;;;;;;4996991;28;19957;-62
2022/07/23 10:22:13;;;;;;;;;;;;;;;;;;5000669;28;19938;-62
2022/07/23 10:24:40;;;;;;;;;;;;;;;;;;5004363;28;20684;-62
2022/07/23 10:27:06;;;;;;;;;;;;;;;;;;4995904;28;19936;-62
2022/07/23 10:29:32;;;;;;;;;;;;;;;;;;5002356;28;20020;-62
2022/07/23 10:31:58;;;;;;;;;;;;;;;;;;4994440;28;19977;-62
2022/07/23 10:34:24;;;;;;;;;;;;;;;;;;5000006;28;19964;-62
2022/07/23 10:36:50;;;;;;;;;;;;;;;;;;5004178;28;19995;-62
2022/07/23 10:39:16;;;;;;;;;;;;;;;;;;4995368;28;19933;-62
2022/07/23 10:41:42;;;;;;;;;;;;;;;;;;4994195;28;20299;-62
2022/07/23 10:44:08;;;;;;;;;;;;;;;;;;4991537;28;19976;-62
2022/07/23 10:49:00;;;;;;;;;;;;;;;;;;4991820;28;20029;-61
2022/07/23 10:51:27;;;;;;;;;;;;;;;;;;4996901;28;19930;-62
2022/07/23 10:53:53;;;;;;;;;;;;;;;;;;4994959;28;20383;-62
2022/07/23 10:56:19;;;;;;;;;;;;;;;;;;4993346;28;19949;-62
2022/07/23 10:58:45;;;;;;;;;;;;;;;;;;4991266;28;19926;-62
2022/07/23 11:01:11;;;;;;;;;;;;;;;;;;4995691;28;19926;-62
2022/07/23 11:03:37;;;;;;;;;;;;;;;;;;4993830;28;19926;-62
2022/07/23 11:06:03;;;;;;;;;;;;;;;;;;5000015;28;20007;-62
2022/07/23 11:08:29;;;;;;;;;;;;;;;;;;4992388;28;19928;-62
2022/07/23 11:10:55;;;;;;;;;;;;;;;;;;4997941;28;19925;-62
2022/07/23 11:13:21;;;;;;;;;;;;;;;;;;5003757;28;19921;-62
2022/07/23 11:15:47;;;;;;;;;;;;;;;;;;5000451;28;19971;-62
2022/07/23 11:18:13;;;;;;;;;;;;;;;;;;5001664;28;19934;-62
2022/07/23 11:20:39;;;;;;;;;;;;;;;;;;5004235;28;19928;-62
2022/07/23 11:23:06;;;;;;;;;;;;;;;;;;4997153;28;20078;-62
2022/07/23 11:25:32;;;;;;;;;;;;;;;;;;5006275;28;19926;-61
2022/07/23 11:27:58;;;;;;;;;;;;;;;;;;4997052;28;20384;-62
2022/07/23 11:30:24;;;;;;;;;;;;;;;;;;5000833;28;20418;-62
2022/07/23 11:32:50;;;;;;;;;;;;;;;;;;5001821;28;19996;-62
2022/07/23 11:35:16;;;;;;;;;;;;;;;;;;5000753;28;19932;-62
2022/07/23 11:37:42;;;;;;;;;;;;;;;;;;5002421;28;19930;-62
2022/07/23 11:40:08;;;;;;;;;;;;;;;;;;5001462;28;20028;-62
2022/07/23 11:42:34;;;;;;;;;;;;;;;;;;5002516;28;19933;-62
2022/07/23 11:45:00;;;;;;;;;;;;;;;;;;5001661;28;19937;-62
2022/07/23 11:47:26;;;;;;;;;;;;;;;;;;5002703;28;20279;-62
2022/07/23 11:49:52;;;;;;;;;;;;;;;;;;5002398;28;19934;-62
2022/07/23 11:52:18;;;;;;;;;;;;;;;;;;5002776;28;19952;-62
2022/07/23 11:54:44;;;;;;;;;;;;;;;;;;5001206;28;19929;-62
2022/07/23 11:57:10;;;;;;;;;;;;;;;;;;5002888;28;19929;-62
2022/07/23 11:59:36;;;;;;;;;;;;;;;;;;5001909;28;20668;-62
2022/07/23 12:02:02;;;;;;;;;;;;;;;;;;5002779;28;19933;-62
2022/07/23 12:04:28;;;;;;;;;;;;;;;;;;5002078;28;19926;-62
2022/07/23 12:06:54;;;;;;;;;;;;;;;;;;5000893;28;19940;-62
2022/07/23 12:09:20;;;;;;;;;;;;;;;;;;5000929;28;20435;-62
2022/07/23 12:11:46;;;;;;;;;;;;;;;;;;5002686;28;20020;-62
2022/07/23 12:14:12;;;;;;;;;;;;;;;;;;5004564;28;20024;-62
2022/07/23 12:16:38;;;;;;;;;;;;;;;;;;5006303;28;20000;-62
2022/07/23 12:19:04;;;;;;;;;;;;;;;;;;5005429;28;20350;-62
2022/07/23 12:21:30;;;;;;;;;;;;;;;;;;5006421;28;19936;-62
2022/07/23 12:23:56;;;;;;;;;;;;;;;;;;5005515;28;19980;-61
2022/07/23 12:26:22;;;;;;;;;;;;;;;;;;5004783;28;19930;-62
2022/07/23 12:28:48;;;;;;;;;;;;;;;;;;5004789;28;20000;-61
2022/07/23 12:31:14;;;;;;;;;;;;;;;;;;5005782;28;19940;-61
2022/07/23 12:33:40;;;;;;;;;;;;;;;;;;5002912;28;19929;-61
2022/07/23 12:36:06;;;;;;;;;;;;;;;;;;5004780;28;19930;-61
2022/07/23 12:38:32;;;;;;;;;;;;;;;;;;5006194;28;19995;-61
2022/07/23 12:40:59;;;;;;;;;;;;;;;;;;5004886;28;20713;-61
2022/07/23 12:43:25;;;;;;;;;;;;;;;;;;5004936;28;19980;-61
2022/07/23 12:45:51;;;;;;;;;;;;;;;;;;5005102;28;19929;-61
2022/07/23 12:48:17;;;;;;;;;;;;;;;;;;5005772;28;19937;-61
2022/07/23 12:50:43;;;;;;;;;;;;;;;;;;5004627;28;19929;-61
2022/07/23 12:53:09;;;;;;;;;;;;;;;;;;5013821;28;19933;-61
2022/07/23 12:55:35;;;;;;;;;;;;;;;;;;5013340;28;19929;-61
2022/07/23 12:58:01;;;;;;;;;;;;;;;;;;5013593;28;19983;-61
2022/07/23 13:00:27;;;;;;;;;;;;;;;;;;5015901;28;19976;-62
2022/07/23 13:02:53;;;;;;;;;;;;;;;;;;5015663;28;20034;-61
2022/07/23 13:05:19;;;;;;;;;;;;;;;;;;5016976;28;19983;-62
2022/07/23 13:07:45;;;;;;;;;;;;;;;;;;5018250;28;20532;-61
2022/07/23 13:10:12;;;;;;;;;;;;;;;;;;5005255;28;19925;-62
2022/07/23 13:12:38;;;;;;;;;;;;;;;;;;5020145;28;20370;-61
2022/07/23 13:15:04;;;;;;;;;;;;;;;;;;5015855;28;19925;-61
2022/07/23 13:17:30;;;;;;;;;;;;;;;;;;5018022;28;19932;-61
2022/07/23 13:19:56;;;;;;;;;;;;;;;;;;5016812;28;20633;-62
2022/07/23 13:22:22;;;;;;;;;;;;;;;;;;5018758;28;19926;-61
2022/07/23 13:24:48;;;;;;;;;;;;;;;;;;5016626;28;20441;-61
2022/07/23 13:27:14;;;;;;;;;;;;;;;;;;5006390;28;19935;-61
2022/07/23 13:29:40;;;;;;;;;;;;;;;;;;5006666;28;19951;-62
2022/07/23 13:32:07;;;;;;;;;;;;;;;;;;5005267;28;19949;-62
2022/07/23 13:34:32;;;;;;;;;;;;;;;;;;5007276;28;19933;-61
2022/07/23 13:36:58;;;;;;;;;;;;;;;;;;5007888;28;20282;-61
2022/07/23 13:39:24;;;;;;;;;;;;;;;;;;5008485;28;19967;-61
2022/07/23 13:41:51;;;;;;;;;;;;;;;;;;5015935;28;20019;-62
2022/07/23 13:44:16;;;;;;;;;;;;;;;;;;5016432;28;20023;-61
2022/07/23 13:46:42;;;;;;;;;;;;;;;;;;5006644;28;20032;-62
2022/07/23 13:49:09;;;;;;;;;;;;;;;;;;5012392;28;19921;-61
2022/07/23 13:51:35;;;;;;;;;;;;;;;;;;5039872;28;19936;-61
2022/07/23 13:54:02;;;;;;;;;;;;;;;;;;5012044;28;19929;-61
2022/07/23 13:56:28;;;;;;;;;;;;;;;;;;5010331;28;19951;-61
2022/07/23 13:58:54;;;;;;;;;;;;;;;;;;5022082;28;19955;-60
2022/07/23 14:01:20;;;;;;;;;;;;;;;;;;5011660;28;20314;-61
2022/07/23 14:03:46;;;;;;;;;;;;;;;;;;5018291;28;19933;-61
2022/07/23 14:06:12;;;;;;;;;;;;;;;;;;5011682;28;20362;-61
2022/07/23 14:08:38;;;;;;;;;;;;;;;;;;5015210;28;19933;-61
2022/07/23 14:11:04;;;;;;;;;;;;;;;;;;5019340;28;19972;-61
2022/07/23 14:13:30;;;;;;;;;;;;;;;;;;5015110;28;20457;-61
2022/07/23 14:15:56;;;;;;;;;;;;;;;;;;5019455;28;19936;-61
2022/07/23 14:18:22;;;;;;;;;;;;;;;;;;5011883;28;19946;-61
2022/07/23 14:20:48;;;;;;;;;;;;;;;;;;5017989;28;20335;-61
2022/07/23 14:23:14;;;;;;;;;;;;;;;;;;5014949;28;19937;-61
2022/07/23 14:25:40;;;;;;;;;;;;;;;;;;5018215;28;19936;-61
2022/07/23 14:28:06;;;;;;;;;;;;;;;;;;5016226;28;19984;-61
2022/07/23 14:30:32;;;;;;;;;;;;;;;;;;5018724;28;19936;-61
2022/07/23 14:32:58;;;;;;;;;;;;;;;;;;5015691;28;19925;-61
2022/07/23 14:35:24;;;;;;;;;;;;;;;;;;5019456;28;19925;-61
2022/07/23 14:37:50;;;;;;;;;;;;;;;;;;5017945;28;19976;-61
2022/07/23 14:40:16;;;;;;;;;;;;;;;;;;5015937;28;20016;-61
2022/07/23 14:42:42;;;;;;;;;;;;;;;;;;5009502;28;19930;-61
2022/07/23 14:45:08;;;;;;;;;;;;;;;;;;5010342;28;19933;-61
2022/07/23 14:47:34;;;;;;;;;;;;;;;;;;5021192;28;19932;-61
2022/07/23 14:50:00;;;;;;;;;;;;;;;;;;5017656;28;20003;-61
2022/07/23 14:52:26;;;;;;;;;;;;;;;;;;5018486;28;20233;-61
2022/07/23 14:54:52;;;;;;;;;;;;;;;;;;5020723;28;20419;-61
2022/07/23 14:57:18;;;;;;;;;;;;;;;;;;5020626;28;19929;-61
2022/07/23 14:59:44;;;;;;;;;;;;;;;;;;5014989;28;20079;-61
2022/07/23 15:02:11;;;;;;;;;;;;;;;;;;5010516;28;20337;-61
2022/07/23 15:04:37;;;;;;;;;;;;;;;;;;5018928;28;19936;-61
2022/07/23 15:07:03;;;;;;;;;;;;;;;;;;5017961;28;19987;-61
2022/07/23 15:09:29;;;;;;;;;;;;;;;;;;5002885;28;19929;-61
2022/07/23 15:11:55;;;;;;;;;;;;;;;;;;5015786;28;19929;-61
2022/07/23 15:14:21;;;;;;;;;;;;;;;;;;5019793;28;20442;-61
2022/07/23 15:16:48;;;;;;;;;;;;;;;;;;5011018;28;20024;-61
2022/07/23 15:19:14;;;;;;;;;;;;;;;;;;5009728;28;20051;-61
2022/07/23 15:21:40;;;;;;;;;;;;;;;;;;5014661;28;19925;-61
2022/07/23 15:24:06;;;;;;;;;;;;;;;;;;5013351;28;19929;-61
2022/07/23 15:26:32;;;;;;;;;;;;;;;;;;5017091;28;19921;-61
2022/07/23 15:28:58;;;;;;;;;;;;;;;;;;4988655;28;20081;-61
2022/07/23 15:31:24;;;;;;;;;;;;;;;;;;5004462;28;19956;-61
2022/07/23 15:33:50;;;;;;;;;;;;;;;;;;5004791;28;19976;-61
2022/07/23 15:36:16;;;;;;;;;;;;;;;;;;5002105;28;20397;-61
2022/07/23 15:38:42;;;;;;;;;;;;;;;;;;5004810;28;19917;-61
2022/07/23 15:41:08;;;;;;;;;;;;;;;;;;5003297;28;19925;-60
2022/07/23 15:43:35;;;;;;;;;;;;;;;;;;5002359;28;19925;-60
2022/07/23 15:46:01;;;;;;;;;;;;;;;;;;5004671;28;19925;-61
2022/07/23 15:48:27;;;;;;;;;;;;;;;;;;5006962;28;19926;-61
2022/07/23 15:50:53;;;;;;;;;;;;;;;;;;5007878;28;19984;-62
2022/07/23 15:53:19;;;;;;;;;;;;;;;;;;5006424;28;20387;-61
2022/07/23 15:55:45;;;;;;;;;;;;;;;;;;5007078;28;19926;-62
2022/07/23 15:58:11;;;;;;;;;;;;;;;;;;5006391;28;20656;-62
2022/07/23 16:00:37;;;;;;;;;;;;;;;;;;5008648;28;19925;-61
2022/07/23 16:03:03;;;;;;;;;;;;;;;;;;5008866;28;19930;-61
2022/07/23 16:05:29;;;;;;;;;;;;;;;;;;5007809;28;20033;-61
2022/07/23 16:07:55;;;;;;;;;;;;;;;;;;5008992;28;20125;-61
2022/07/23 16:10:21;;;;;;;;;;;;;;;;;;5007368;28;20339;-61
2022/07/23 16:12:47;;;;;;;;;;;;;;;;;;5001811;28;19926;-62
2022/07/23 16:15:14;;;;;;;;;;;;;;;;;;5007429;28;19921;-61
2022/07/23 16:17:40;;;;;;;;;;;;;;;;;;5008459;28;20272;-61
2022/07/23 16:20:07;;;;;;;;;;;;;;;;;;5007853;28;19930;-61
2022/07/23 16:22:33;;;;;;;;;;;;;;;;;;5009162;28;19979;-59
2022/07/23 16:24:58;;;;;;;;;;;;;;;;;;5008078;28;19925;-60
2022/07/23 16:27:24;;;;;;;;;;;;;;;;;;5005792;28;19933;-60
2022/07/23 16:29:51;;;;;;;;;;;;;;;;;;4998120;28;20052;-59
2022/07/23 16:32:17;;;;;;;;;;;;;;;;;;4996978;28;19934;-59
2022/07/23 16:34:43;;;;;;;;;;;;;;;;;;4993484;28;19933;-59
2022/07/23 16:37:09;;;;;;;;;;;;;;;;;;5000074;28;19932;-59
2022/07/23 16:39:35;;;;;;;;;;;;;;;;;;5006417;28;19925;-61
2022/07/23 16:42:01;;;;;;;;;;;;;;;;;;5004577;28;20125;-60
2022/07/23 16:44:27;;;;;;;;;;;;;;;;;;5005732;28;19929;-60
2022/07/23 16:46:53;;;;;;;;;;;;;;;;;;4988809;28;20499;-61
2022/07/23 16:49:19;;;;;;;;;;;;;;;;;;5005359;28;20026;-60
2022/07/23 16:51:45;;;;;;;;;;;;;;;;;;5006028;28;19942;-60
2022/07/23 16:54:11;;;;;;;;;;;;;;;;;;4988596;28;19929;-60
2022/07/23 16:56:37;;;;;;;;;;;;;;;;;;5007009;28;19930;-60
2022/07/23 16:59:03;;;;;;;;;;;;;;;;;;5002678;28;19976;-60
2022/07/23 17:01:29;;;;;;;;;;;;;;;;;;5003360;28;20389;-60
2022/07/23 17:03:55;;;;;;;;;;;;;;;;;;5005055;28;19975;-61
2022/07/23 17:06:21;;;;;;;;;;;;;;;;;;5004190;28;19926;-60
2022/07/23 17:08:47;;;;;;;;;;;;;;;;;;5004692;28;19925;-60
2022/07/23 17:11:13;;;;;;;;;;;;;;;;;;5004539;28;20286;-60
2022/07/23 17:13:39;;;;;;;;;;;;;;;;;;5002167;28;20401;-60
2022/07/23 17:16:05;;;;;;;;;;;;;;;;;;5007868;28;19929;-60
2022/07/23 17:18:31;;;;;;;;;;;;;;;;;;5005712;28;19936;-60
2022/07/23 17:20:57;;;;;;;;;;;;;;;;;;5012691;28;20586;-60
2022/07/23 17:23:23;;;;;;;;;;;;;;;;;;5004644;28;20663;-60
2022/07/23 17:25:49;;;;;;;;;;;;;;;;;;5005482;28;20020;-60
2022/07/23 17:28:15;;;;;;;;;;;;;;;;;;5004898;28;20055;-60
2022/07/23 17:30:41;;;;;;;;;;;;;;;;;;5005640;28;20299;-60
2022/07/23 17:33:07;;;;;;;;;;;;;;;;;;5010182;28;19926;-60
2022/07/23 17:35:33;;;;;;;;;;;;;;;;;;5005756;28;19945;-60
2022/07/23 17:37:59;;;;;;;;;;;;;;;;;;5005436;28;20007;-60
2022/07/23 17:40:25;;;;;;;;;;;;;;;;;;5004320;28;19944;-60
2022/07/23 17:42:51;;;;;;;;;;;;;;;;;;5004806;28;19929;-60
2022/07/23 17:45:18;;;;;;;;;;;;;;;;;;5005421;28;19991;-59
2022/07/23 17:47:46;;;;;;;;;;;;;;;;;;5004917;28;19929;-60
2022/07/23 17:50:12;;;;;;;;;;;;;;;;;;5004690;28;20288;-59
2022/07/23 17:52:38;;;;;;;;;;;;;;;;;;5005182;28;19925;-60
2022/07/23 17:55:04;;;;;;;;;;;;;;;;;;5005242;28;19977;-59
2022/07/23 17:57:30;;;;;;;;;;;;;;;;;;4998222;28;19925;-59
2022/07/23 17:59:56;;;;;;;;;;;;;;;;;;5003644;28;19925;-60
2022/07/23 18:02:22;;;;;;;;;;;;;;;;;;5002900;28;20394;-60
2022/07/23 18:04:48;;;;;;;;;;;;;;;;;;5002847;28;20063;-60
2022/07/23 18:07:14;;;;;;;;;;;;;;;;;;5003296;28;20345;-59
2022/07/23 18:09:40;;;;;;;;;;;;;;;;;;5000616;28;19929;-59
2022/07/23 18:12:06;;;;;;;;;;;;;;;;;;5003104;28;19930;-60
2022/07/23 18:14:32;;;;;;;;;;;;;;;;;;5000875;28;20411;-62
2022/07/23 18:16:58;;;;;;;;;;;;;;;;;;5000841;28;19934;-61
2022/07/23 18:19:24;;;;;;;;;;;;;;;;;;5002091;28;19945;-61
2022/07/23 18:21:50;;;;;;;;;;;;;;;;;;5001970;28;19936;-61
2022/07/23 18:24:16;;;;;;;;;;;;;;;;;;5002265;28;20016;-60
2022/07/23 18:26:42;;;;;;;;;;;;;;;;;;5003010;28;20123;-61
2022/07/23 18:29:08;;;;;;;;;;;;;;;;;;5001896;28;19933;-60
2022/07/23 18:31:34;;;;;;;;;;;;;;;;;;5001520;28;19925;-61
2022/07/23 18:34:00;;;;;;;;;;;;;;;;;;5002138;28;19925;-61
2022/07/23 18:36:26;;;;;;;;;;;;;;;;;;5003058;28;19922;-61
2022/07/23 18:38:52;;;;;;;;;;;;;;;;;;5003135;28;19979;-59
2022/07/23 18:41:18;;;;;;;;;;;;;;;;;;5001863;28;19972;-61
2022/07/23 18:43:44;;;;;;;;;;;;;;;;;;5001154;28;19931;-61
2022/07/23 18:46:10;;;;;;;;;;;;;;;;;;5002289;28;19929;-61
2022/07/23 18:48:36;;;;;;;;;;;;;;;;;;5002321;28;20024;-60
2022/07/23 18:51:03;;;;;;;;;;;;;;;;;;5001938;28;19929;-61
2022/07/23 18:53:28;;;;;;;;;;;;;;;;;;5001174;28;19936;-61
2022/07/23 18:55:55;;;;;;;;;;;;;;;;;;5001767;28;19925;-61
2022/07/23 18:58:21;;;;;;;;;;;;;;;;;;4998283;28;20064;-61
2022/07/23 19:00:47;;;;;;;;;;;;;;;;;;5001867;28;20442;-61
2022/07/23 19:03:13;;;;;;;;;;;;;;;;;;5001736;28;19925;-61
2022/07/23 19:05:39;;;;;;;;;;;;;;;;;;5002299;28;19944;-61
2022/07/23 19:08:06;;;;;;;;;;;;;;;;;;5002018;28;19932;-61
2022/07/23 19:10:32;;;;;;;;;;;;;;;;;;5002168;28;19926;-60
2022/07/23 19:12:58;;;;;;;;;;;;;;;;;;5001261;28;19921;-61
2022/07/23 19:15:24;;;;;;;;;;;;;;;;;;5000631;28;19969;-61
2022/07/23 19:17:50;;;;;;;;;;;;;;;;;;5002266;28;20015;-61
2022/07/23 19:20:16;;;;;;;;;;;;;;;;;;5001205;28;19968;-61
2022/07/23 19:22:42;;;;;;;;;;;;;;;;;;5004640;28;20025;-62
2022/07/23 19:25:09;;;;;;;;;;;;;;;;;;5005005;28;19929;-61
2022/07/23 19:27:35;;;;;;;;;;;;;;;;;;5004315;28;20911;-60
2022/07/23 19:30:01;;;;;;;;;;;;;;;;;;5004758;28;20406;-61
2022/07/23 19:32:27;;;;;;;;;;;;;;;;;;5005285;28;19933;-61
2022/07/23 19:34:53;;;;;;;;;;;;;;;;;;5005033;28;20019;-61
2022/07/23 19:37:20;;;;;;;;;;;;;;;;;;5005044;28;20031;-61
2022/07/23 19:39:46;;;;;;;;;;;;;;;;;;5004761;28;19965;-61
2022/07/23 19:42:12;;;;;;;;;;;;;;;;;;5005138;28;20260;-61
2022/07/23 19:44:38;;;;;;;;;;;;;;;;;;5005195;28;20490;-61
2022/07/23 19:47:04;;;;;;;;;;;;;;;;;;5005235;28;19941;-60
2022/07/23 19:49:30;;;;;;;;;;;;;;;;;;5005001;28;20016;-60
2022/07/23 19:51:56;;;;;;;;;;;;;;;;;;5004871;28;20371;-61
2022/07/23 19:54:22;;;;;;;;;;;;;;;;;;5005247;28;20346;-61
2022/07/23 19:56:48;;;;;;;;;;;;;;;;;;5005676;28;19948;-61
2022/07/23 19:59:14;;;;;;;;;;;;;;;;;;5004166;28;19949;-60
2022/07/23 20:01:40;;;;;;;;;;;;;;;;;;5004707;28;19929;-60
2022/07/23 20:04:06;;;;;;;;;;;;;;;;;;5004362;28;19936;-61
2022/07/23 20:06:32;;;;;;;;;;;;;;;;;;5004837;28;20349;-60
2022/07/23 20:08:58;;;;;;;;;;;;;;;;;;5004310;28;19929;-61
2022/07/23 20:11:24;;;;;;;;;;;;;;;;;;5004507;28;20453;-61
2022/07/23 20:13:50;;;;;;;;;;;;;;;;;;5004069;28;19936;-60
2022/07/23 20:16:16;;;;;;;;;;;;;;;;;;5004019;28;19936;-61
2022/07/23 20:18:43;;;;;;;;;;;;;;;;;;5004252;28;20052;-60
2022/07/23 20:21:09;;;;;;;;;;;;;;;;;;5004903;28;19938;-60
2022/07/23 20:23:35;;;;;;;;;;;;;;;;;;5004562;28;19930;-60
2022/07/23 20:26:01;;;;;;;;;;;;;;;;;;5004337;28;20020;-61
2022/07/23 20:28:27;;;;;;;;;;;;;;;;;;5004063;28;19921;-60
2022/07/23 20:30:53;;;;;;;;;;;;;;;;;;5003030;28;19933;-61
2022/07/23 20:33:19;;;;;;;;;;;;;;;;;;5003166;28;19925;-61
2022/07/23 20:35:45;;;;;;;;;;;;;;;;;;5003998;28;19932;-61
2022/07/23 20:38:11;;;;;;;;;;;;;;;;;;5007410;28;20445;-61
2022/07/23 20:40:37;;;;;;;;;;;;;;;;;;5003301;28;19933;-60
2022/07/23 20:43:03;;;;;;;;;;;;;;;;;;5003675;28;20016;-60
2022/07/23 20:45:29;;;;;;;;;;;;;;;;;;5005223;28;20004;-61
2022/07/23 20:47:56;;;;;;;;;;;;;;;;;;5003963;28;19936;-61
2022/07/23 20:50:22;;;;;;;;;;;;;;;;;;5004494;28;19929;-61
2022/07/23 20:52:48;;;;;;;;;;;;;;;;;;5004766;28;19972;-60
2022/07/23 20:55:14;;;;;;;;;;;;;;;;;;5004289;28;20004;-60
2022/07/23 20:57:40;;;;;;;;;;;;;;;;;;5003025;28;20466;-61
2022/07/23 21:00:07;;;;;;;;;;;;;;;;;;5003727;28;20014;-60
2022/07/23 21:02:33;;;;;;;;;;;;;;;;;;5003299;28;19929;-60
2022/07/23 21:04:59;;;;;;;;;;;;;;;;;;5003743;28;20397;-61
2022/07/23 21:07:25;;;;;;;;;;;;;;;;;;5003549;28;20117;-61